sensor_id;sensor_type;location;lat;lon;timestamp;P1;P2;P0
63305;PMS5003;50735;52.060;1.248;2023-08-17T00:00:59;8;7;
63305;PMS5003;50735;52.060;1.248;2023-08-17T00:03:32;14;10;
63305;PMS5003;50735;52.060;1.248;2023-08-17T00:06:04;15;11;
63305;PMS5003;50735;52.060;1.248;2023-08-17T00:08:36;12;8;
63305;PMS5003;50735;52.060;1.248;2023-08-17T00:11:08;8;7;
63305;PMS5003;50735;52.060;1.248;2023-08-17T00:13:39;8;8;
63305;PMS5003;50735;52.060;1.248;2023-08-17T00:16:11;9;8;
63305;PMS5003;50735;52.060;1.248;2023-08-17T00:18:43;6;6;
63305;PMS5003;50735;52.060;1.248;2023-08-17T00:21:15;9;8;
63305;PMS5003;50735;52.060;1.248;2023-08-17T00:23:46;7;7;
63305;PMS5003;50735;52.060;1.248;2023-08-17T00:26:18;8;6;
63305;PMS5003;50735;52.060;1.248;2023-08-17T00:28:50;8;5;
63305;PMS5003;50735;52.060;1.248;2023-08-17T00:31:22;10;8;
63305;PMS5003;50735;52.060;1.248;2023-08-17T00:33:53;7;7;
63305;PMS5003;50735;52.060;1.248;2023-08-17T00:36:25;6;6;
63305;PMS5003;50735;52.060;1.248;2023-08-17T00:38:57;9;7;
63305;PMS5003;50735;52.060;1.248;2023-08-17T00:41:29;8;5;
63305;PMS5003;50735;52.060;1.248;2023-08-17T00:44:01;8;8;
63305;PMS5003;50735;52.060;1.248;2023-08-17T00:46:33;6;6;
63305;PMS5003;50735;52.060;1.248;2023-08-17T00:49:05;6;5;
63305;PMS5003;50735;52.060;1.248;2023-08-17T00:51:38;6;6;
63305;PMS5003;50735;52.060;1.248;2023-08-17T00:54:10;9;7;
63305;PMS5003;50735;52.060;1.248;2023-08-17T00:56:43;9;6;
63305;PMS5003;50735;52.060;1.248;2023-08-17T00:59:15;8;5;
63305;PMS5003;50735;52.060;1.248;2023-08-17T01:01:46;5;5;
63305;PMS5003;50735;52.060;1.248;2023-08-17T01:04:19;6;6;
63305;PMS5003;50735;52.060;1.248;2023-08-17T01:06:50;7;5;
63305;PMS5003;50735;52.060;1.248;2023-08-17T01:09:23;10;9;
63305;PMS5003;50735;52.060;1.248;2023-08-17T01:11:56;4;4;
63305;PMS5003;50735;52.060;1.248;2023-08-17T01:14:37;5;5;
63305;PMS5003;50735;52.060;1.248;2023-08-17T01:17:17;11;10;
63305;PMS5003;50735;52.060;1.248;2023-08-17T01:19:53;10;7;
63305;PMS5003;50735;52.060;1.248;2023-08-17T01:22:26;9;6;
63305;PMS5003;50735;52.060;1.248;2023-08-17T01:25:03;5;5;
63305;PMS5003;50735;52.060;1.248;2023-08-17T01:27:38;8;6;
63305;PMS5003;50735;52.060;1.248;2023-08-17T01:30:12;18;13;
63305;PMS5003;50735;52.060;1.248;2023-08-17T01:32:48;6;6;
63305;PMS5003;50735;52.060;1.248;2023-08-17T01:35:25;7;6;
63305;PMS5003;50735;52.060;1.248;2023-08-17T01:38:02;9;9;
63305;PMS5003;50735;52.060;1.248;2023-08-17T01:40:38;14;11;
63305;PMS5003;50735;52.060;1.248;2023-08-17T01:43:12;7;7;
63305;PMS5003;50735;52.060;1.248;2023-08-17T01:45:45;7;7;
63305;PMS5003;50735;52.060;1.248;2023-08-17T01:48:17;9;8;
63305;PMS5003;50735;52.060;1.248;2023-08-17T01:50:49;9;5;
63305;PMS5003;50735;52.060;1.248;2023-08-17T01:53:21;8;8;
63305;PMS5003;50735;52.060;1.248;2023-08-17T01:55:52;10;8;
63305;PMS5003;50735;52.060;1.248;2023-08-17T01:58:24;7;7;
63305;PMS5003;50735;52.060;1.248;2023-08-17T02:00:56;11;10;
63305;PMS5003;50735;52.060;1.248;2023-08-17T02:03:27;8;6;
63305;PMS5003;50735;52.060;1.248;2023-08-17T02:05:59;6;6;
63305;PMS5003;50735;52.060;1.248;2023-08-17T02:08:32;9;8;
63305;PMS5003;50735;52.060;1.248;2023-08-17T02:11:04;8;8;
63305;PMS5003;50735;52.060;1.248;2023-08-17T02:13:36;7;6;
63305;PMS5003;50735;52.060;1.248;2023-08-17T02:16:08;7;7;
63305;PMS5003;50735;52.060;1.248;2023-08-17T02:18:40;9;8;
63305;PMS5003;50735;52.060;1.248;2023-08-17T02:21:12;10;7;
63305;PMS5003;50735;52.060;1.248;2023-08-17T02:23:43;10;7;
63305;PMS5003;50735;52.060;1.248;2023-08-17T02:26:15;9;6;
63305;PMS5003;50735;52.060;1.248;2023-08-17T02:28:47;10;8;
63305;PMS5003;50735;52.060;1.248;2023-08-17T02:31:19;7;7;
63305;PMS5003;50735;52.060;1.248;2023-08-17T02:33:51;13;11;
63305;PMS5003;50735;52.060;1.248;2023-08-17T02:36:22;6;6;
63305;PMS5003;50735;52.060;1.248;2023-08-17T02:38:54;7;7;
63305;PMS5003;50735;52.060;1.248;2023-08-17T02:41:26;10;7;
63305;PMS5003;50735;52.060;1.248;2023-08-17T02:43:58;5;5;
63305;PMS5003;50735;52.060;1.248;2023-08-17T02:46:29;10;7;
63305;PMS5003;50735;52.060;1.248;2023-08-17T02:49:01;9;6;
63305;PMS5003;50735;52.060;1.248;2023-08-17T02:51:33;7;7;
63305;PMS5003;50735;52.060;1.248;2023-08-17T02:54:05;7;5;
63305;PMS5003;50735;52.060;1.248;2023-08-17T02:56:36;10;10;
63305;PMS5003;50735;52.060;1.248;2023-08-17T02:59:08;8;7;
63305;PMS5003;50735;52.060;1.248;2023-08-17T03:01:40;5;5;
63305;PMS5003;50735;52.060;1.248;2023-08-17T03:04:11;15;9;
63305;PMS5003;50735;52.060;1.248;2023-08-17T03:06:43;6;6;
63305;PMS5003;50735;52.060;1.248;2023-08-17T03:09:15;10;8;
63305;PMS5003;50735;52.060;1.248;2023-08-17T03:11:47;7;6;
63305;PMS5003;50735;52.060;1.248;2023-08-17T03:14:19;9;6;
63305;PMS5003;50735;52.060;1.248;2023-08-17T03:16:50;9;6;
63305;PMS5003;50735;52.060;1.248;2023-08-17T03:19:22;5;5;
63305;PMS5003;50735;52.060;1.248;2023-08-17T03:21:54;5;5;
63305;PMS5003;50735;52.060;1.248;2023-08-17T03:24:26;8;7;
63305;PMS5003;50735;52.060;1.248;2023-08-17T03:26:57;7;6;
63305;PMS5003;50735;52.060;1.248;2023-08-17T03:29:29;7;7;
63305;PMS5003;50735;52.060;1.248;2023-08-17T03:32:01;5;5;
63305;PMS5003;50735;52.060;1.248;2023-08-17T03:34:33;6;6;
63305;PMS5003;50735;52.060;1.248;2023-08-17T03:37:04;11;11;
63305;PMS5003;50735;52.060;1.248;2023-08-17T03:39:36;16;11;
63305;PMS5003;50735;52.060;1.248;2023-08-17T03:42:08;12;9;
63305;PMS5003;50735;52.060;1.248;2023-08-17T03:44:39;10;7;
63305;PMS5003;50735;52.060;1.248;2023-08-17T03:47:11;12;6;
63305;PMS5003;50735;52.060;1.248;2023-08-17T03:49:44;11;8;
63305;PMS5003;50735;52.060;1.248;2023-08-17T03:52:16;10;8;
63305;PMS5003;50735;52.060;1.248;2023-08-17T03:54:48;14;9;
63305;PMS5003;50735;52.060;1.248;2023-08-17T03:57:19;8;6;
63305;PMS5003;50735;52.060;1.248;2023-08-17T03:59:51;5;5;
63305;PMS5003;50735;52.060;1.248;2023-08-17T04:02:23;8;7;
63305;PMS5003;50735;52.060;1.248;2023-08-17T04:04:55;7;6;
63305;PMS5003;50735;52.060;1.248;2023-08-17T04:07:26;6;6;
63305;PMS5003;50735;52.060;1.248;2023-08-17T04:09:58;12;9;
63305;PMS5003;50735;52.060;1.248;2023-08-17T04:12:30;7;5;
63305;PMS5003;50735;52.060;1.248;2023-08-17T04:15:02;12;7;
63305;PMS5003;50735;52.060;1.248;2023-08-17T04:17:34;10;6;
63305;PMS5003;50735;52.060;1.248;2023-08-17T04:20:06;11;7;
63305;PMS5003;50735;52.060;1.248;2023-08-17T04:22:39;8;7;
63305;PMS5003;50735;52.060;1.248;2023-08-17T04:25:10;8;7;
63305;PMS5003;50735;52.060;1.248;2023-08-17T04:27:42;9;7;
63305;PMS5003;50735;52.060;1.248;2023-08-17T04:30:14;9;6;
63305;PMS5003;50735;52.060;1.248;2023-08-17T04:32:46;8;7;
63305;PMS5003;50735;52.060;1.248;2023-08-17T04:35:18;8;8;
63305;PMS5003;50735;52.060;1.248;2023-08-17T04:37:50;11;9;
63305;PMS5003;50735;52.060;1.248;2023-08-17T04:40:22;9;9;
63305;PMS5003;50735;52.060;1.248;2023-08-17T04:42:54;8;8;
63305;PMS5003;50735;52.060;1.248;2023-08-17T04:45:26;9;6;
63305;PMS5003;50735;52.060;1.248;2023-08-17T04:47:57;11;9;
63305;PMS5003;50735;52.060;1.248;2023-08-17T04:50:30;12;8;
63305;PMS5003;50735;52.060;1.248;2023-08-17T04:53:01;6;6;
63305;PMS5003;50735;52.060;1.248;2023-08-17T04:55:33;14;8;
63305;PMS5003;50735;52.060;1.248;2023-08-17T04:58:05;15;8;
63305;PMS5003;50735;52.060;1.248;2023-08-17T05:00:37;14;13;
63305;PMS5003;50735;52.060;1.248;2023-08-17T05:03:09;13;9;
63305;PMS5003;50735;52.060;1.248;2023-08-17T05:05:41;7;6;
63305;PMS5003;50735;52.060;1.248;2023-08-17T05:08:12;8;8;
63305;PMS5003;50735;52.060;1.248;2023-08-17T05:10:44;9;8;
63305;PMS5003;50735;52.060;1.248;2023-08-17T05:13:16;8;8;
63305;PMS5003;50735;52.060;1.248;2023-08-17T05:15:48;8;6;
63305;PMS5003;50735;52.060;1.248;2023-08-17T05:18:20;12;10;
63305;PMS5003;50735;52.060;1.248;2023-08-17T05:20:53;9;9;
63305;PMS5003;50735;52.060;1.248;2023-08-17T05:23:25;9;6;
63305;PMS5003;50735;52.060;1.248;2023-08-17T05:25:56;9;6;
63305;PMS5003;50735;52.060;1.248;2023-08-17T05:28:28;10;7;
63305;PMS5003;50735;52.060;1.248;2023-08-17T05:31:02;7;7;
63305;PMS5003;50735;52.060;1.248;2023-08-17T05:33:36;9;8;
63305;PMS5003;50735;52.060;1.248;2023-08-17T05:36:07;10;7;
63305;PMS5003;50735;52.060;1.248;2023-08-17T05:38:39;7;6;
63305;PMS5003;50735;52.060;1.248;2023-08-17T05:41:11;9;7;
63305;PMS5003;50735;52.060;1.248;2023-08-17T05:43:42;10;7;
63305;PMS5003;50735;52.060;1.248;2023-08-17T05:46:15;7;7;
63305;PMS5003;50735;52.060;1.248;2023-08-17T05:48:47;6;6;
63305;PMS5003;50735;52.060;1.248;2023-08-17T05:51:18;8;6;
63305;PMS5003;50735;52.060;1.248;2023-08-17T05:53:50;7;7;
63305;PMS5003;50735;52.060;1.248;2023-08-17T05:56:22;8;7;
63305;PMS5003;50735;52.060;1.248;2023-08-17T05:58:54;7;5;
63305;PMS5003;50735;52.060;1.248;2023-08-17T06:01:25;12;10;
63305;PMS5003;50735;52.060;1.248;2023-08-17T06:03:57;8;4;
63305;PMS5003;50735;52.060;1.248;2023-08-17T06:06:29;7;7;
63305;PMS5003;50735;52.060;1.248;2023-08-17T06:09:01;5;5;
63305;PMS5003;50735;52.060;1.248;2023-08-17T06:11:32;7;6;
63305;PMS5003;50735;52.060;1.248;2023-08-17T06:14:04;6;6;
63305;PMS5003;50735;52.060;1.248;2023-08-17T06:16:36;8;5;
63305;PMS5003;50735;52.060;1.248;2023-08-17T06:19:08;7;6;
63305;PMS5003;50735;52.060;1.248;2023-08-17T06:21:39;7;6;
63305;PMS5003;50735;52.060;1.248;2023-08-17T06:24:11;6;6;
63305;PMS5003;50735;52.060;1.248;2023-08-17T06:26:44;15;11;
63305;PMS5003;50735;52.060;1.248;2023-08-17T06:29:15;8;7;
63305;PMS5003;50735;52.060;1.248;2023-08-17T06:31:47;6;5;
63305;PMS5003;50735;52.060;1.248;2023-08-17T06:34:19;4;4;
63305;PMS5003;50735;52.060;1.248;2023-08-17T06:36:56;8;6;
63305;PMS5003;50735;52.060;1.248;2023-08-17T06:39:29;11;8;
63305;PMS5003;50735;52.060;1.248;2023-08-17T06:42:01;9;6;
63305;PMS5003;50735;52.060;1.248;2023-08-17T06:44:34;8;7;
63305;PMS5003;50735;52.060;1.248;2023-08-17T06:47:05;8;5;
63305;PMS5003;50735;52.060;1.248;2023-08-17T06:49:37;7;6;
63305;PMS5003;50735;52.060;1.248;2023-08-17T06:52:09;7;6;
63305;PMS5003;50735;52.060;1.248;2023-08-17T06:54:41;7;5;
63305;PMS5003;50735;52.060;1.248;2023-08-17T06:57:13;5;5;
63305;PMS5003;50735;52.060;1.248;2023-08-17T06:59:45;11;6;
63305;PMS5003;50735;52.060;1.248;2023-08-17T07:02:16;6;6;
63305;PMS5003;50735;52.060;1.248;2023-08-17T07:04:48;10;6;
63305;PMS5003;50735;52.060;1.248;2023-08-17T07:07:20;7;5;
63305;PMS5003;50735;52.060;1.248;2023-08-17T07:09:52;10;6;
63305;PMS5003;50735;52.060;1.248;2023-08-17T07:12:24;14;6;
63305;PMS5003;50735;52.060;1.248;2023-08-17T07:14:56;7;7;
63305;PMS5003;50735;52.060;1.248;2023-08-17T07:17:27;5;5;
63305;PMS5003;50735;52.060;1.248;2023-08-17T07:19:59;5;5;
63305;PMS5003;50735;52.060;1.248;2023-08-17T07:22:30;9;6;
63305;PMS5003;50735;52.060;1.248;2023-08-17T07:25:03;7;6;
63305;PMS5003;50735;52.060;1.248;2023-08-17T07:27:35;2;2;
63305;PMS5003;50735;52.060;1.248;2023-08-17T07:30:07;4;4;
63305;PMS5003;50735;52.060;1.248;2023-08-17T07:32:39;6;6;
63305;PMS5003;50735;52.060;1.248;2023-08-17T07:35:11;6;6;
63305;PMS5003;50735;52.060;1.248;2023-08-17T07:37:43;6;4;
63305;PMS5003;50735;52.060;1.248;2023-08-17T07:40:14;5;4;
63305;PMS5003;50735;52.060;1.248;2023-08-17T07:42:46;4;4;
63305;PMS5003;50735;52.060;1.248;2023-08-17T07:45:18;7;7;
63305;PMS5003;50735;52.060;1.248;2023-08-17T07:47:50;3;3;
63305;PMS5003;50735;52.060;1.248;2023-08-17T07:50:21;3;3;
63305;PMS5003;50735;52.060;1.248;2023-08-17T07:52:53;4;3;
63305;PMS5003;50735;52.060;1.248;2023-08-17T07:55:25;7;5;
63305;PMS5003;50735;52.060;1.248;2023-08-17T07:57:57;4;4;
63305;PMS5003;50735;52.060;1.248;2023-08-17T08:00:29;6;5;
63305;PMS5003;50735;52.060;1.248;2023-08-17T08:03:01;4;4;
63305;PMS5003;50735;52.060;1.248;2023-08-17T08:05:33;6;5;
63305;PMS5003;50735;52.060;1.248;2023-08-17T08:08:05;5;5;
63305;PMS5003;50735;52.060;1.248;2023-08-17T08:10:37;5;5;
63305;PMS5003;50735;52.060;1.248;2023-08-17T08:13:09;5;5;
63305;PMS5003;50735;52.060;1.248;2023-08-17T08:15:41;5;5;
63305;PMS5003;50735;52.060;1.248;2023-08-17T08:18:13;7;5;
63305;PMS5003;50735;52.060;1.248;2023-08-17T08:20:44;6;6;
63305;PMS5003;50735;52.060;1.248;2023-08-17T08:23:16;6;6;
63305;PMS5003;50735;52.060;1.248;2023-08-17T08:25:49;10;9;
63305;PMS5003;50735;52.060;1.248;2023-08-17T08:28:20;4;4;
63305;PMS5003;50735;52.060;1.248;2023-08-17T08:30:52;5;5;
63305;PMS5003;50735;52.060;1.248;2023-08-17T08:33:24;4;4;
63305;PMS5003;50735;52.060;1.248;2023-08-17T08:35:55;4;4;
63305;PMS5003;50735;52.060;1.248;2023-08-17T08:38:27;5;5;
63305;PMS5003;50735;52.060;1.248;2023-08-17T08:40:59;4;4;
63305;PMS5003;50735;52.060;1.248;2023-08-17T08:43:32;7;7;
63305;PMS5003;50735;52.060;1.248;2023-08-17T08:46:04;3;3;
63305;PMS5003;50735;52.060;1.248;2023-08-17T08:48:36;7;5;
63305;PMS5003;50735;52.060;1.248;2023-08-17T08:51:11;4;4;
63305;PMS5003;50735;52.060;1.248;2023-08-17T08:53:48;5;5;
63305;PMS5003;50735;52.060;1.248;2023-08-17T08:56:31;4;2;
63305;PMS5003;50735;52.060;1.248;2023-08-17T08:59:03;3;3;
63305;PMS5003;50735;52.060;1.248;2023-08-17T09:01:36;7;4;
63305;PMS5003;50735;52.060;1.248;2023-08-17T09:04:10;4;2;
63305;PMS5003;50735;52.060;1.248;2023-08-17T09:06:42;6;4;
63305;PMS5003;50735;52.060;1.248;2023-08-17T09:09:15;3;3;
63305;PMS5003;50735;52.060;1.248;2023-08-17T09:11:47;3;3;
63305;PMS5003;50735;52.060;1.248;2023-08-17T09:14:19;5;5;
63305;PMS5003;50735;52.060;1.248;2023-08-17T09:16:51;3;3;
63305;PMS5003;50735;52.060;1.248;2023-08-17T09:19:22;4;4;
63305;PMS5003;50735;52.060;1.248;2023-08-17T09:21:54;4;4;
63305;PMS5003;50735;52.060;1.248;2023-08-17T09:24:33;2;2;
63305;PMS5003;50735;52.060;1.248;2023-08-17T09:27:05;5;5;
63305;PMS5003;50735;52.060;1.248;2023-08-17T09:29:43;3;3;
63305;PMS5003;50735;52.060;1.248;2023-08-17T09:32:15;4;4;
63305;PMS5003;50735;52.060;1.248;2023-08-17T09:34:47;3;3;
63305;PMS5003;50735;52.060;1.248;2023-08-17T09:37:21;4;4;
63305;PMS5003;50735;52.060;1.248;2023-08-17T09:39:53;8;5;
63305;PMS5003;50735;52.060;1.248;2023-08-17T09:42:24;3;3;
63305;PMS5003;50735;52.060;1.248;2023-08-17T09:44:57;4;3;
63305;PMS5003;50735;52.060;1.248;2023-08-17T09:47:29;3;3;
63305;PMS5003;50735;52.060;1.248;2023-08-17T09:50:02;6;4;
63305;PMS5003;50735;52.060;1.248;2023-08-17T09:52:38;5;5;
63305;PMS5003;50735;52.060;1.248;2023-08-17T09:55:10;4;3;
63305;PMS5003;50735;52.060;1.248;2023-08-17T09:57:44;5;4;
63305;PMS5003;50735;52.060;1.248;2023-08-17T10:00:17;2;2;
63305;PMS5003;50735;52.060;1.248;2023-08-17T10:02:50;5;5;
63305;PMS5003;50735;52.060;1.248;2023-08-17T10:05:23;2;2;
63305;PMS5003;50735;52.060;1.248;2023-08-17T10:07:56;4;4;
63305;PMS5003;50735;52.060;1.248;2023-08-17T10:10:32;4;4;
63305;PMS5003;50735;52.060;1.248;2023-08-17T10:13:08;6;6;
63305;PMS5003;50735;52.060;1.248;2023-08-17T10:18:35;6;4;
63305;PMS5003;50735;52.060;1.248;2023-08-17T10:21:16;4;3;
63305;PMS5003;50735;52.060;1.248;2023-08-17T10:23:57;2;2;
63305;PMS5003;50735;52.060;1.248;2023-08-17T10:26:29;5;3;
63305;PMS5003;50735;52.060;1.248;2023-08-17T10:29:02;3;3;
63305;PMS5003;50735;52.060;1.248;2023-08-17T10:31:35;6;5;
63305;PMS5003;50735;52.060;1.248;2023-08-17T10:34:07;4;3;
63305;PMS5003;50735;52.060;1.248;2023-08-17T10:36:39;3;3;
63305;PMS5003;50735;52.060;1.248;2023-08-17T10:39:20;6;5;
63305;PMS5003;50735;52.060;1.248;2023-08-17T10:41:54;3;3;
63305;PMS5003;50735;52.060;1.248;2023-08-17T10:44:45;5;3;
63305;PMS5003;50735;52.060;1.248;2023-08-17T10:47:19;4;4;
63305;PMS5003;50735;52.060;1.248;2023-08-17T10:49:55;3;3;
63305;PMS5003;50735;52.060;1.248;2023-08-17T10:52:29;4;4;
63305;PMS5003;50735;52.060;1.248;2023-08-17T10:55:03;5;2;
63305;PMS5003;50735;52.060;1.248;2023-08-17T10:57:37;4;4;
63305;PMS5003;50735;52.060;1.248;2023-08-17T11:00:14;3;3;
63305;PMS5003;50735;52.060;1.248;2023-08-17T11:02:55;3;2;
63305;PMS5003;50735;52.060;1.248;2023-08-17T11:05:36;5;4;
63305;PMS5003;50735;52.060;1.248;2023-08-17T11:08:09;4;4;
63305;PMS5003;50735;52.060;1.248;2023-08-17T11:10:46;5;5;
63305;PMS5003;50735;52.060;1.248;2023-08-17T11:13:19;5;5;
63305;PMS5003;50735;52.060;1.248;2023-08-17T11:15:52;7;4;
63305;PMS5003;50735;52.060;1.248;2023-08-17T11:18:23;5;4;
63305;PMS5003;50735;52.060;1.248;2023-08-17T11:20:55;5;4;
63305;PMS5003;50735;52.060;1.248;2023-08-17T11:23:28;10;4;
63305;PMS5003;50735;52.060;1.248;2023-08-17T11:26:01;2;2;
63305;PMS5003;50735;52.060;1.248;2023-08-17T11:28:34;5;5;
63305;PMS5003;50735;52.060;1.248;2023-08-17T11:31:06;5;3;
63305;PMS5003;50735;52.060;1.248;2023-08-17T11:33:39;12;7;
63305;PMS5003;50735;52.060;1.248;2023-08-17T11:36:11;7;4;
63305;PMS5003;50735;52.060;1.248;2023-08-17T11:38:43;4;4;
63305;PMS5003;50735;52.060;1.248;2023-08-17T11:41:15;6;3;
63305;PMS5003;50735;52.060;1.248;2023-08-17T11:43:49;3;3;
63305;PMS5003;50735;52.060;1.248;2023-08-17T11:46:21;3;3;
63305;PMS5003;50735;52.060;1.248;2023-08-17T11:48:53;6;2;
63305;PMS5003;50735;52.060;1.248;2023-08-17T11:51:28;3;3;
63305;PMS5003;50735;52.060;1.248;2023-08-17T11:54:00;5;4;
63305;PMS5003;50735;52.060;1.248;2023-08-17T11:56:32;5;3;
63305;PMS5003;50735;52.060;1.248;2023-08-17T11:59:08;2;2;
63305;PMS5003;50735;52.060;1.248;2023-08-17T12:01:41;5;5;
63305;PMS5003;50735;52.060;1.248;2023-08-17T12:04:12;2;2;
63305;PMS5003;50735;52.060;1.248;2023-08-17T12:06:44;3;3;
63305;PMS5003;50735;52.060;1.248;2023-08-17T12:09:17;3;3;
63305;PMS5003;50735;52.060;1.248;2023-08-17T12:11:53;4;4;
63305;PMS5003;50735;52.060;1.248;2023-08-17T12:14:30;5;3;
63305;PMS5003;50735;52.060;1.248;2023-08-17T12:17:02;4;3;
63305;PMS5003;50735;52.060;1.248;2023-08-17T12:19:34;2;2;
63305;PMS5003;50735;52.060;1.248;2023-08-17T12:22:06;4;3;
63305;PMS5003;50735;52.060;1.248;2023-08-17T12:24:38;4;4;
63305;PMS5003;50735;52.060;1.248;2023-08-17T12:27:11;3;3;
63305;PMS5003;50735;52.060;1.248;2023-08-17T12:29:46;4;3;
63305;PMS5003;50735;52.060;1.248;2023-08-17T12:32:19;2;2;
63305;PMS5003;50735;52.060;1.248;2023-08-17T12:34:51;5;5;
63305;PMS5003;50735;52.060;1.248;2023-08-17T12:37:23;5;4;
63305;PMS5003;50735;52.060;1.248;2023-08-17T12:39:55;3;3;
63305;PMS5003;50735;52.060;1.248;2023-08-17T12:42:26;3;3;
63305;PMS5003;50735;52.060;1.248;2023-08-17T12:44:58;5;3;
63305;PMS5003;50735;52.060;1.248;2023-08-17T12:47:30;6;3;
63305;PMS5003;50735;52.060;1.248;2023-08-17T12:50:01;2;2;
63305;PMS5003;50735;52.060;1.248;2023-08-17T12:52:33;2;2;
63305;PMS5003;50735;52.060;1.248;2023-08-17T12:55:06;3;2;
63305;PMS5003;50735;52.060;1.248;2023-08-17T12:57:38;6;3;
63305;PMS5003;50735;52.060;1.248;2023-08-17T13:00:10;4;4;
63305;PMS5003;50735;52.060;1.248;2023-08-17T13:02:43;2;2;
63305;PMS5003;50735;52.060;1.248;2023-08-17T13:05:15;2;2;
63305;PMS5003;50735;52.060;1.248;2023-08-17T13:07:46;3;3;
63305;PMS5003;50735;52.060;1.248;2023-08-17T13:10:18;1;1;
63305;PMS5003;50735;52.060;1.248;2023-08-17T13:12:50;3;3;
63305;PMS5003;50735;52.060;1.248;2023-08-17T13:15:21;2;2;
63305;PMS5003;50735;52.060;1.248;2023-08-17T13:17:53;2;2;
63305;PMS5003;50735;52.060;1.248;2023-08-17T13:20:25;1;1;
63305;PMS5003;50735;52.060;1.248;2023-08-17T13:22:56;3;2;
63305;PMS5003;50735;52.060;1.248;2023-08-17T13:25:28;4;3;
63305;PMS5003;50735;52.060;1.248;2023-08-17T13:28:00;5;2;
63305;PMS5003;50735;52.060;1.248;2023-08-17T13:30:31;4;2;
63305;PMS5003;50735;52.060;1.248;2023-08-17T13:33:03;2;2;
63305;PMS5003;50735;52.060;1.248;2023-08-17T13:35:36;4;4;
63305;PMS5003;50735;52.060;1.248;2023-08-17T13:38:07;4;3;
63305;PMS5003;50735;52.060;1.248;2023-08-17T13:40:39;2;2;
63305;PMS5003;50735;52.060;1.248;2023-08-17T13:43:10;1;1;
63305;PMS5003;50735;52.060;1.248;2023-08-17T13:45:42;2;2;
63305;PMS5003;50735;52.060;1.248;2023-08-17T13:48:14;1;1;
63305;PMS5003;50735;52.060;1.248;2023-08-17T13:50:46;3;2;
63305;PMS5003;50735;52.060;1.248;2023-08-17T13:53:18;3;3;
63305;PMS5003;50735;52.060;1.248;2023-08-17T13:55:49;2;2;
63305;PMS5003;50735;52.060;1.248;2023-08-17T13:58:21;3;2;
63305;PMS5003;50735;52.060;1.248;2023-08-17T14:00:53;2;1;
63305;PMS5003;50735;52.060;1.248;2023-08-17T14:03:24;3;3;
63305;PMS5003;50735;52.060;1.248;2023-08-17T14:05:56;2;1;
63305;PMS5003;50735;52.060;1.248;2023-08-17T14:08:28;6;3;
63305;PMS5003;50735;52.060;1.248;2023-08-17T14:10:59;4;2;
63305;PMS5003;50735;52.060;1.248;2023-08-17T14:13:31;3;3;
63305;PMS5003;50735;52.060;1.248;2023-08-17T14:16:03;5;2;
63305;PMS5003;50735;52.060;1.248;2023-08-17T14:18:35;4;4;
63305;PMS5003;50735;52.060;1.248;2023-08-17T14:21:07;1;1;
63305;PMS5003;50735;52.060;1.248;2023-08-17T14:23:39;2;2;
63305;PMS5003;50735;52.060;1.248;2023-08-17T14:26:10;2;2;
63305;PMS5003;50735;52.060;1.248;2023-08-17T14:28:42;2;0;
63305;PMS5003;50735;52.060;1.248;2023-08-17T14:31:13;3;1;
63305;PMS5003;50735;52.060;1.248;2023-08-17T14:33:45;2;2;
63305;PMS5003;50735;52.060;1.248;2023-08-17T14:36:18;1;1;
63305;PMS5003;50735;52.060;1.248;2023-08-17T14:38:49;2;2;
63305;PMS5003;50735;52.060;1.248;2023-08-17T14:41:21;3;3;
63305;PMS5003;50735;52.060;1.248;2023-08-17T14:43:53;1;1;
63305;PMS5003;50735;52.060;1.248;2023-08-17T14:46:24;2;2;
63305;PMS5003;50735;52.060;1.248;2023-08-17T14:48:56;3;1;
63305;PMS5003;50735;52.060;1.248;2023-08-17T14:51:28;2;2;
63305;PMS5003;50735;52.060;1.248;2023-08-17T14:54:00;3;1;
63305;PMS5003;50735;52.060;1.248;2023-08-17T14:56:32;3;3;
63305;PMS5003;50735;52.060;1.248;2023-08-17T14:59:04;1;1;
63305;PMS5003;50735;52.060;1.248;2023-08-17T15:01:35;1;1;
63305;PMS5003;50735;52.060;1.248;2023-08-17T15:04:07;3;2;
63305;PMS5003;50735;52.060;1.248;2023-08-17T15:06:38;1;1;
63305;PMS5003;50735;52.060;1.248;2023-08-17T15:09:10;2;2;
63305;PMS5003;50735;52.060;1.248;2023-08-17T15:11:42;3;2;
63305;PMS5003;50735;52.060;1.248;2023-08-17T15:14:13;3;2;
63305;PMS5003;50735;52.060;1.248;2023-08-17T15:16:45;4;2;
63305;PMS5003;50735;52.060;1.248;2023-08-17T15:19:17;3;1;
63305;PMS5003;50735;52.060;1.248;2023-08-17T15:21:49;2;2;
63305;PMS5003;50735;52.060;1.248;2023-08-17T15:24:21;2;2;
63305;PMS5003;50735;52.060;1.248;2023-08-17T15:26:52;4;3;
63305;PMS5003;50735;52.060;1.248;2023-08-17T15:29:24;6;6;
63305;PMS5003;50735;52.060;1.248;2023-08-17T15:31:56;3;3;
63305;PMS5003;50735;52.060;1.248;2023-08-17T15:34:28;3;1;
63305;PMS5003;50735;52.060;1.248;2023-08-17T15:36:59;3;1;
63305;PMS5003;50735;52.060;1.248;2023-08-17T15:39:32;2;2;
63305;PMS5003;50735;52.060;1.248;2023-08-17T15:42:03;2;2;
63305;PMS5003;50735;52.060;1.248;2023-08-17T15:44:36;2;2;
63305;PMS5003;50735;52.060;1.248;2023-08-17T15:47:07;3;3;
63305;PMS5003;50735;52.060;1.248;2023-08-17T15:49:39;7;1;
63305;PMS5003;50735;52.060;1.248;2023-08-17T15:52:11;1;1;
63305;PMS5003;50735;52.060;1.248;2023-08-17T15:54:42;5;2;
63305;PMS5003;50735;52.060;1.248;2023-08-17T15:57:14;3;2;
63305;PMS5003;50735;52.060;1.248;2023-08-17T15:59:46;0;0;
63305;PMS5003;50735;52.060;1.248;2023-08-17T16:02:18;4;2;
63305;PMS5003;50735;52.060;1.248;2023-08-17T16:04:50;3;2;
63305;PMS5003;50735;52.060;1.248;2023-08-17T16:07:21;2;2;
63305;PMS5003;50735;52.060;1.248;2023-08-17T16:09:53;2;2;
63305;PMS5003;50735;52.060;1.248;2023-08-17T16:12:27;2;2;
63305;PMS5003;50735;52.060;1.248;2023-08-17T16:14:59;2;2;
63305;PMS5003;50735;52.060;1.248;2023-08-17T16:17:31;2;2;
63305;PMS5003;50735;52.060;1.248;2023-08-17T16:20:03;1;1;
63305;PMS5003;50735;52.060;1.248;2023-08-17T16:22:35;1;1;
63305;PMS5003;50735;52.060;1.248;2023-08-17T16:25:07;4;3;
63305;PMS5003;50735;52.060;1.248;2023-08-17T16:27:39;3;3;
63305;PMS5003;50735;52.060;1.248;2023-08-17T16:30:11;4;3;
63305;PMS5003;50735;52.060;1.248;2023-08-17T16:32:43;1;1;
63305;PMS5003;50735;52.060;1.248;2023-08-17T16:35:15;5;2;
63305;PMS5003;50735;52.060;1.248;2023-08-17T16:37:47;2;2;
63305;PMS5003;50735;52.060;1.248;2023-08-17T16:40:18;2;2;
63305;PMS5003;50735;52.060;1.248;2023-08-17T16:42:50;4;1;
63305;PMS5003;50735;52.060;1.248;2023-08-17T16:45:22;2;2;
63305;PMS5003;50735;52.060;1.248;2023-08-17T16:47:53;4;2;
63305;PMS5003;50735;52.060;1.248;2023-08-17T16:50:25;4;4;
63305;PMS5003;50735;52.060;1.248;2023-08-17T16:52:57;4;3;
63305;PMS5003;50735;52.060;1.248;2023-08-17T16:55:29;4;4;
63305;PMS5003;50735;52.060;1.248;2023-08-17T16:58:01;2;2;
63305;PMS5003;50735;52.060;1.248;2023-08-17T17:00:33;3;3;
63305;PMS5003;50735;52.060;1.248;2023-08-17T17:03:05;3;2;
63305;PMS5003;50735;52.060;1.248;2023-08-17T17:05:37;5;2;
63305;PMS5003;50735;52.060;1.248;2023-08-17T17:08:09;4;4;
63305;PMS5003;50735;52.060;1.248;2023-08-17T17:10:41;3;3;
63305;PMS5003;50735;52.060;1.248;2023-08-17T17:13:12;3;2;
63305;PMS5003;50735;52.060;1.248;2023-08-17T17:15:44;3;3;
63305;PMS5003;50735;52.060;1.248;2023-08-17T17:18:16;2;2;
63305;PMS5003;50735;52.060;1.248;2023-08-17T17:20:48;3;3;
63305;PMS5003;50735;52.060;1.248;2023-08-17T17:23:19;5;3;
63305;PMS5003;50735;52.060;1.248;2023-08-17T17:25:51;2;2;